sensor_id;sensor_type;location;lat;lon;timestamp;P1;durP1;ratioP1;P2;durP2;ratioP2
35110;SDS011;21290;50.158;8.658;2022-09-09T00:06:24;5.45;;;2.10;;
35110;SDS011;21290;50.158;8.658;2022-09-09T00:11:36;2.90;;;1.70;;
35110;SDS011;21290;50.158;8.658;2022-09-09T00:14:18;4.72;;;2.13;;
35110;SDS011;21290;50.158;8.658;2022-09-09T00:17:01;6.22;;;1.63;;
35110;SDS011;21290;50.158;8.658;2022-09-09T00:19:41;4.05;;;1.67;;
35110;SDS011;21290;50.158;8.658;2022-09-09T00:25:02;4.60;;;1.63;;
35110;SDS011;21290;50.158;8.658;2022-09-09T00:27:41;4.50;;;1.48;;
35110;SDS011;21290;50.158;8.658;2022-09-09T00:30:17;5.40;;;1.67;;
35110;SDS011;21290;50.158;8.658;2022-09-09T00:32:48;6.88;;;2.00;;
35110;SDS011;21290;50.158;8.658;2022-09-09T00:35:24;3.55;;;1.77;;
35110;SDS011;21290;50.158;8.658;2022-09-09T00:38:02;3.97;;;1.40;;
35110;SDS011;21290;50.158;8.658;2022-09-09T00:40:41;7.72;;;1.85;;
35110;SDS011;21290;50.158;8.658;2022-09-09T00:43:40;5.90;;;1.60;;
35110;SDS011;21290;50.158;8.658;2022-09-09T00:46:11;4.63;;;2.17;;
35110;SDS011;21290;50.158;8.658;2022-09-09T00:56:47;6.93;;;1.40;;
35110;SDS011;21290;50.158;8.658;2022-09-09T01:02:29;4.90;;;1.50;;
35110;SDS011;21290;50.158;8.658;2022-09-09T01:05:23;4.20;;;1.50;;
35110;SDS011;21290;50.158;8.658;2022-09-09T01:08:03;3.00;;;1.60;;
35110;SDS011;21290;50.158;8.658;2022-09-09T01:10:43;5.35;;;1.55;;
35110;SDS011;21290;50.158;8.658;2022-09-09T01:13:23;3.88;;;1.30;;
35110;SDS011;21290;50.158;8.658;2022-09-09T01:15:53;4.75;;;1.35;;
35110;SDS011;21290;50.158;8.658;2022-09-09T01:18:27;5.18;;;1.40;;
35110;SDS011;21290;50.158;8.658;2022-09-09T01:21:04;3.75;;;1.58;;
35110;SDS011;21290;50.158;8.658;2022-09-09T01:23:59;7.07;;;1.92;;
35110;SDS011;21290;50.158;8.658;2022-09-09T01:26:35;4.05;;;1.30;;
35110;SDS011;21290;50.158;8.658;2022-09-09T01:29:08;8.50;;;2.63;;
35110;SDS011;21290;50.158;8.658;2022-09-09T01:31:42;10.45;;;1.83;;
35110;SDS011;21290;50.158;8.658;2022-09-09T01:34:24;4.38;;;2.13;;
35110;SDS011;21290;50.158;8.658;2022-09-09T01:36:59;3.75;;;1.60;;
35110;SDS011;21290;50.158;8.658;2022-09-09T01:39:32;5.13;;;1.90;;
35110;SDS011;21290;50.158;8.658;2022-09-09T01:42:01;3.75;;;1.55;;
35110;SDS011;21290;50.158;8.658;2022-09-09T01:44:29;6.85;;;1.95;;
35110;SDS011;21290;50.158;8.658;2022-09-09T01:46:56;5.68;;;2.20;;
35110;SDS011;21290;50.158;8.658;2022-09-09T01:49:23;4.93;;;2.13;;
35110;SDS011;21290;50.158;8.658;2022-09-09T01:51:52;4.82;;;1.73;;
35110;SDS011;21290;50.158;8.658;2022-09-09T01:54:21;6.57;;;2.85;;
35110;SDS011;21290;50.158;8.658;2022-09-09T02:08:05;2.95;;;1.92;;
35110;SDS011;21290;50.158;8.658;2022-09-09T02:10:38;3.25;;;1.60;;
35110;SDS011;21290;50.158;8.658;2022-09-09T02:13:17;5.50;;;2.03;;
35110;SDS011;21290;50.158;8.658;2022-09-09T02:15:57;7.03;;;1.98;;
35110;SDS011;21290;50.158;8.658;2022-09-09T05:23:50;7.68;;;2.33;;
35110;SDS011;21290;50.158;8.658;2022-09-09T05:26:18;6.43;;;2.25;;
35110;SDS011;21290;50.158;8.658;2022-09-09T05:28:46;4.30;;;2.20;;
35110;SDS011;21290;50.158;8.658;2022-09-09T05:31:14;15.88;;;2.83;;
35110;SDS011;21290;50.158;8.658;2022-09-09T05:33:43;7.07;;;2.60;;
35110;SDS011;21290;50.158;8.658;2022-09-09T05:36:12;4.93;;;2.60;;
35110;SDS011;21290;50.158;8.658;2022-09-09T05:38:40;6.30;;;2.20;;
35110;SDS011;21290;50.158;8.658;2022-09-09T05:41:07;5.55;;;2.50;;
35110;SDS011;21290;50.158;8.658;2022-09-09T05:43:36;7.15;;;3.22;;
35110;SDS011;21290;50.158;8.658;2022-09-09T05:46:07;10.68;;;3.10;;
35110;SDS011;21290;50.158;8.658;2022-09-09T05:48:35;7.53;;;3.88;;
35110;SDS011;21290;50.158;8.658;2022-09-09T05:51:04;7.50;;;2.40;;
35110;SDS011;21290;50.158;8.658;2022-09-09T05:53:34;8.75;;;2.67;;
35110;SDS011;21290;50.158;8.658;2022-09-09T05:56:05;6.35;;;2.40;;
35110;SDS011;21290;50.158;8.658;2022-09-09T05:58:33;5.97;;;2.53;;
35110;SDS011;21290;50.158;8.658;2022-09-09T06:01:07;10.68;;;2.58;;
35110;SDS011;21290;50.158;8.658;2022-09-09T06:03:38;8.80;;;2.25;;
35110;SDS011;21290;50.158;8.658;2022-09-09T06:06:12;5.03;;;2.03;;
35110;SDS011;21290;50.158;8.658;2022-09-09T06:08:41;4.25;;;2.15;;
35110;SDS011;21290;50.158;8.658;2022-09-09T06:11:14;11.73;;;2.60;;
35110;SDS011;21290;50.158;8.658;2022-09-09T06:13:43;5.10;;;2.10;;
35110;SDS011;21290;50.158;8.658;2022-09-09T06:16:11;4.75;;;1.73;;
35110;SDS011;21290;50.158;8.658;2022-09-09T06:21:07;7.55;;;1.73;;
35110;SDS011;21290;50.158;8.658;2022-09-09T06:23:42;5.50;;;1.85;;
35110;SDS011;21290;50.158;8.658;2022-09-09T06:28:44;4.32;;;1.60;;
35110;SDS011;21290;50.158;8.658;2022-09-09T06:31:12;8.73;;;2.53;;
35110;SDS011;21290;50.158;8.658;2022-09-09T06:33:40;3.67;;;1.70;;
35110;SDS011;21290;50.158;8.658;2022-09-09T06:36:14;8.95;;;1.92;;
35110;SDS011;21290;50.158;8.658;2022-09-09T06:38:42;4.70;;;1.70;;
35110;SDS011;21290;50.158;8.658;2022-09-09T06:41:09;10.73;;;1.73;;
35110;SDS011;21290;50.158;8.658;2022-09-09T06:43:37;6.88;;;1.70;;
35110;SDS011;21290;50.158;8.658;2022-09-09T06:46:05;6.03;;;1.13;;
35110;SDS011;21290;50.158;8.658;2022-09-09T06:48:35;8.23;;;1.60;;
35110;SDS011;21290;50.158;8.658;2022-09-09T06:51:03;10.40;;;1.80;;
35110;SDS011;21290;50.158;8.658;2022-09-09T06:53:31;7.67;;;1.70;;
35110;SDS011;21290;50.158;8.658;2022-09-09T06:56:16;4.03;;;1.55;;
35110;SDS011;21290;50.158;8.658;2022-09-09T06:58:45;5.45;;;1.75;;
35110;SDS011;21290;50.158;8.658;2022-09-09T07:01:13;6.13;;;1.65;;
35110;SDS011;21290;50.158;8.658;2022-09-09T07:03:44;6.90;;;1.88;;
35110;SDS011;21290;50.158;8.658;2022-09-09T07:06:14;7.68;;;1.58;;
35110;SDS011;21290;50.158;8.658;2022-09-09T07:08:55;7.28;;;1.50;;
35110;SDS011;21290;50.158;8.658;2022-09-09T07:13:56;5.57;;;1.85;;
35110;SDS011;21290;50.158;8.658;2022-09-09T07:16:25;5.10;;;1.35;;
35110;SDS011;21290;50.158;8.658;2022-09-09T07:18:53;4.78;;;1.48;;
35110;SDS011;21290;50.158;8.658;2022-09-09T07:21:27;6.15;;;2.08;;
35110;SDS011;21290;50.158;8.658;2022-09-09T07:23:54;4.55;;;1.50;;
35110;SDS011;21290;50.158;8.658;2022-09-09T07:26:22;6.95;;;1.65;;
35110;SDS011;21290;50.158;8.658;2022-09-09T07:28:50;4.40;;;1.50;;
35110;SDS011;21290;50.158;8.658;2022-09-09T07:31:18;8.20;;;1.77;;
35110;SDS011;21290;50.158;8.658;2022-09-09T07:33:46;4.82;;;1.30;;
35110;SDS011;21290;50.158;8.658;2022-09-09T07:36:21;3.38;;;1.30;;
35110;SDS011;21290;50.158;8.658;2022-09-09T07:38:51;3.65;;;1.48;;
35110;SDS011;21290;50.158;8.658;2022-09-09T07:41:24;6.15;;;2.40;;
35110;SDS011;21290;50.158;8.658;2022-09-09T07:43:53;10.13;;;2.33;;
35110;SDS011;21290;50.158;8.658;2022-09-09T07:46:21;6.53;;;1.88;;
35110;SDS011;21290;50.158;8.658;2022-09-09T07:48:50;4.95;;;1.67;;
35110;SDS011;21290;50.158;8.658;2022-09-09T07:51:20;6.80;;;1.52;;
35110;SDS011;21290;50.158;8.658;2022-09-09T07:53:59;6.30;;;1.33;;
35110;SDS011;21290;50.158;8.658;2022-09-09T07:56:28;5.28;;;1.80;;
35110;SDS011;21290;50.158;8.658;2022-09-09T07:58:56;10.02;;;1.98;;
35110;SDS011;21290;50.158;8.658;2022-09-09T08:01:25;4.22;;;1.67;;
35110;SDS011;21290;50.158;8.658;2022-09-09T08:04:02;7.63;;;1.60;;
35110;SDS011;21290;50.158;8.658;2022-09-09T08:08:59;8.93;;;2.30;;
35110;SDS011;21290;50.158;8.658;2022-09-09T08:11:26;6.35;;;2.00;;
35110;SDS011;21290;50.158;8.658;2022-09-09T08:13:55;7.23;;;1.87;;
35110;SDS011;21290;50.158;8.658;2022-09-09T08:16:34;10.07;;;1.55;;
35110;SDS011;21290;50.158;8.658;2022-09-09T08:19:03;7.13;;;1.83;;
35110;SDS011;21290;50.158;8.658;2022-09-09T08:21:32;8.30;;;1.85;;
35110;SDS011;21290;50.158;8.658;2022-09-09T08:24:00;5.83;;;1.43;;
35110;SDS011;21290;50.158;8.658;2022-09-09T08:26:31;4.45;;;1.65;;
35110;SDS011;21290;50.158;8.658;2022-09-09T08:29:08;6.07;;;1.42;;
35110;SDS011;21290;50.158;8.658;2022-09-09T08:31:37;8.98;;;1.80;;
35110;SDS011;21290;50.158;8.658;2022-09-09T08:34:08;7.53;;;2.80;;
35110;SDS011;21290;50.158;8.658;2022-09-09T08:36:37;9.35;;;1.73;;
35110;SDS011;21290;50.158;8.658;2022-09-09T08:39:06;6.25;;;2.28;;
35110;SDS011;21290;50.158;8.658;2022-09-09T08:41:39;3.72;;;1.60;;
35110;SDS011;21290;50.158;8.658;2022-09-09T08:47:24;13.98;;;2.38;;
35110;SDS011;21290;50.158;8.658;2022-09-09T08:50:13;6.05;;;1.90;;
35110;SDS011;21290;50.158;8.658;2022-09-09T08:52:59;7.35;;;2.35;;
35110;SDS011;21290;50.158;8.658;2022-09-09T08:55:40;5.00;;;1.73;;
35110;SDS011;21290;50.158;8.658;2022-09-09T08:58:17;6.22;;;1.65;;
35110;SDS011;21290;50.158;8.658;2022-09-09T09:00:52;8.75;;;2.20;;
35110;SDS011;21290;50.158;8.658;2022-09-09T09:06:31;6.03;;;2.00;;
35110;SDS011;21290;50.158;8.658;2022-09-09T09:12:16;8.68;;;2.28;;
35110;SDS011;21290;50.158;8.658;2022-09-09T09:14:46;12.02;;;2.08;;
35110;SDS011;21290;50.158;8.658;2022-09-09T09:17:18;8.02;;;2.05;;
35110;SDS011;21290;50.158;8.658;2022-09-09T09:19:47;4.82;;;1.80;;
35110;SDS011;21290;50.158;8.658;2022-09-09T09:25:07;5.30;;;1.50;;
35110;SDS011;21290;50.158;8.658;2022-09-09T09:27:50;6.80;;;1.63;;
35110;SDS011;21290;50.158;8.658;2022-09-09T09:30:29;13.48;;;2.17;;
35110;SDS011;21290;50.158;8.658;2022-09-09T09:35:53;8.95;;;1.70;;
35110;SDS011;21290;50.158;8.658;2022-09-09T09:38:20;6.18;;;1.88;;
35110;SDS011;21290;50.158;8.658;2022-09-09T09:41:10;7.22;;;1.55;;
35110;SDS011;21290;50.158;8.658;2022-09-09T09:43:37;6.63;;;1.70;;
35110;SDS011;21290;50.158;8.658;2022-09-09T09:46:18;5.85;;;1.25;;
35110;SDS011;21290;50.158;8.658;2022-09-09T09:48:59;8.88;;;1.45;;
35110;SDS011;21290;50.158;8.658;2022-09-09T09:51:27;4.60;;;1.45;;
35110;SDS011;21290;50.158;8.658;2022-09-09T09:54:08;9.45;;;1.30;;
35110;SDS011;21290;50.158;8.658;2022-09-09T09:56:35;5.43;;;1.38;;
35110;SDS011;21290;50.158;8.658;2022-09-09T09:59:02;6.90;;;1.50;;
35110;SDS011;21290;50.158;8.658;2022-09-09T10:01:42;5.18;;;1.60;;
35110;SDS011;21290;50.158;8.658;2022-09-09T10:04:17;11.15;;;1.73;;
35110;SDS011;21290;50.158;8.658;2022-09-09T10:06:49;5.15;;;1.20;;
35110;SDS011;21290;50.158;8.658;2022-09-09T10:09:26;5.68;;;1.30;;
35110;SDS011;21290;50.158;8.658;2022-09-09T10:14:48;5.65;;;1.73;;
35110;SDS011;21290;50.158;8.658;2022-09-09T10:17:35;5.63;;;1.80;;
35110;SDS011;21290;50.158;8.658;2022-09-09T10:20:28;7.32;;;1.95;;
35110;SDS011;21290;50.158;8.658;2022-09-09T10:23:14;11.15;;;1.70;;
35110;SDS011;21290;50.158;8.658;2022-09-09T10:28:42;8.07;;;2.03;;
35110;SDS011;21290;50.158;8.658;2022-09-09T10:31:48;7.30;;;1.90;;
35110;SDS011;21290;50.158;8.658;2022-09-09T10:45:49;14.75;;;7.47;;
35110;SDS011;21290;50.158;8.658;2022-09-09T10:51:36;5.93;;;1.55;;
35110;SDS011;21290;50.158;8.658;2022-09-09T10:54:13;6.22;;;1.75;;
35110;SDS011;21290;50.158;8.658;2022-09-09T10:56:44;7.53;;;2.35;;
35110;SDS011;21290;50.158;8.658;2022-09-09T10:59:20;3.17;;;2.17;;
35110;SDS011;21290;50.158;8.658;2022-09-09T11:01:53;5.95;;;2.30;;
35110;SDS011;21290;50.158;8.658;2022-09-09T11:04:24;9.50;;;3.13;;
35110;SDS011;21290;50.158;8.658;2022-09-09T11:06:57;11.75;;;3.28;;
35110;SDS011;21290;50.158;8.658;2022-09-09T11:09:39;6.82;;;2.67;;
35110;SDS011;21290;50.158;8.658;2022-09-09T11:12:12;8.57;;;2.83;;
35110;SDS011;21290;50.158;8.658;2022-09-09T11:14:49;12.23;;;2.90;;
35110;SDS011;21290;50.158;8.658;2022-09-09T11:17:22;6.18;;;2.33;;
35110;SDS011;21290;50.158;8.658;2022-09-09T11:19:53;7.07;;;1.90;;
35110;SDS011;21290;50.158;8.658;2022-09-09T11:36:01;4.10;;;1.58;;
35110;SDS011;21290;50.158;8.658;2022-09-09T11:38:52;5.55;;;1.10;;
35110;SDS011;21290;50.158;8.658;2022-09-09T11:41:23;2.25;;;0.82;;
35110;SDS011;21290;50.158;8.658;2022-09-09T11:43:59;5.45;;;1.27;;
35110;SDS011;21290;50.158;8.658;2022-09-09T11:46:36;6.68;;;1.30;;
35110;SDS011;21290;50.158;8.658;2022-09-09T11:49:05;4.15;;;1.38;;
35110;SDS011;21290;50.158;8.658;2022-09-09T11:51:51;3.47;;;1.40;;
35110;SDS011;21290;50.158;8.658;2022-09-09T11:54:26;3.55;;;1.20;;
35110;SDS011;21290;50.158;8.658;2022-09-09T11:56:56;9.70;;;1.70;;
35110;SDS011;21290;50.158;8.658;2022-09-09T11:59:26;4.72;;;1.73;;
35110;SDS011;21290;50.158;8.658;2022-09-09T12:02:02;7.80;;;1.63;;
35110;SDS011;21290;50.158;8.658;2022-09-09T12:04:46;7.60;;;1.50;;
35110;SDS011;21290;50.158;8.658;2022-09-09T12:07:38;5.68;;;1.55;;
35110;SDS011;21290;50.158;8.658;2022-09-09T12:12:44;5.60;;;1.48;;
35110;SDS011;21290;50.158;8.658;2022-09-09T12:17:41;4.28;;;1.40;;
35110;SDS011;21290;50.158;8.658;2022-09-09T12:20:12;3.85;;;1.30;;
35110;SDS011;21290;50.158;8.658;2022-09-09T12:28:20;4.28;;;1.10;;
35110;SDS011;21290;50.158;8.658;2022-09-09T12:33:54;6.15;;;1.30;;
35110;SDS011;21290;50.158;8.658;2022-09-09T12:36:22;4.95;;;1.23;;
35110;SDS011;21290;50.158;8.658;2022-09-09T12:38:54;5.57;;;1.38;;
35110;SDS011;21290;50.158;8.658;2022-09-09T12:41:26;4.97;;;1.30;;
35110;SDS011;21290;50.158;8.658;2022-09-09T12:44:04;3.95;;;1.10;;
35110;SDS011;21290;50.158;8.658;2022-09-09T12:46:34;5.18;;;1.33;;
35110;SDS011;21290;50.158;8.658;2022-09-09T12:49:21;3.42;;;1.20;;
35110;SDS011;21290;50.158;8.658;2022-09-09T12:52:04;3.15;;;0.90;;
35110;SDS011;21290;50.158;8.658;2022-09-09T12:54:34;5.57;;;1.00;;
35110;SDS011;21290;50.158;8.658;2022-09-09T12:57:02;8.25;;;1.52;;
35110;SDS011;21290;50.158;8.658;2022-09-09T12:59:37;4.88;;;1.25;;
35110;SDS011;21290;50.158;8.658;2022-09-09T13:02:26;5.80;;;1.42;;
35110;SDS011;21290;50.158;8.658;2022-09-09T13:04:53;2.60;;;1.30;;
35110;SDS011;21290;50.158;8.658;2022-09-09T13:07:21;5.40;;;1.13;;
35110;SDS011;21290;50.158;8.658;2022-09-09T13:09:48;5.45;;;1.58;;
35110;SDS011;21290;50.158;8.658;2022-09-09T13:12:19;4.97;;;1.35;;
35110;SDS011;21290;50.158;8.658;2022-09-09T13:14:49;6.68;;;1.63;;
35110;SDS011;21290;50.158;8.658;2022-09-09T13:17:24;7.35;;;1.50;;
35110;SDS011;21290;50.158;8.658;2022-09-09T13:19:53;4.47;;;1.50;;
35110;SDS011;21290;50.158;8.658;2022-09-09T13:22:30;4.20;;;1.20;;
35110;SDS011;21290;50.158;8.658;2022-09-09T13:25:03;5.80;;;1.30;;
35110;SDS011;21290;50.158;8.658;2022-09-09T13:27:41;4.13;;;1.38;;
35110;SDS011;21290;50.158;8.658;2022-09-09T13:30:19;6.05;;;1.40;;
35110;SDS011;21290;50.158;8.658;2022-09-09T13:35:47;4.40;;;1.03;;
35110;SDS011;21290;50.158;8.658;2022-09-09T13:38:14;4.00;;;0.98;;
35110;SDS011;21290;50.158;8.658;2022-09-09T13:40:51;2.65;;;0.73;;
35110;SDS011;21290;50.158;8.658;2022-09-09T13:43:23;3.40;;;0.88;;
35110;SDS011;21290;50.158;8.658;2022-09-09T13:46:01;3.30;;;0.80;;
35110;SDS011;21290;50.158;8.658;2022-09-09T13:48:53;3.75;;;1.00;;
35110;SDS011;21290;50.158;8.658;2022-09-09T13:51:26;3.33;;;0.65;;
35110;SDS011;21290;50.158;8.658;2022-09-09T13:54:00;7.45;;;0.77;;
35110;SDS011;21290;50.158;8.658;2022-09-09T13:56:27;2.10;;;0.70;;
35110;SDS011;21290;50.158;8.658;2022-09-09T13:58:54;3.42;;;0.50;;
35110;SDS011;21290;50.158;8.658;2022-09-09T14:01:21;2.33;;;0.70;;
35110;SDS011;21290;50.158;8.658;2022-09-09T14:03:54;1.90;;;0.52;;
35110;SDS011;21290;50.158;8.658;2022-09-09T14:06:21;3.17;;;0.60;;
35110;SDS011;21290;50.158;8.658;2022-09-09T14:08:51;1.25;;;0.60;;
35110;SDS011;21290;50.158;8.658;2022-09-09T14:11:18;1.38;;;0.57;;
35110;SDS011;21290;50.158;8.658;2022-09-09T14:13:45;1.38;;;0.80;;
35110;SDS011;21290;50.158;8.658;2022-09-09T14:16:11;1.38;;;0.50;;
35110;SDS011;21290;50.158;8.658;2022-09-09T14:18:38;2.88;;;1.10;;
35110;SDS011;21290;50.158;8.658;2022-09-09T14:21:05;3.35;;;0.70;;
35110;SDS011;21290;50.158;8.658;2022-09-09T14:23:31;1.60;;;0.63;;
35110;SDS011;21290;50.158;8.658;2022-09-09T14:25:58;5.72;;;0.70;;
35110;SDS011;21290;50.158;8.658;2022-09-09T14:28:25;4.35;;;0.85;;
35110;SDS011;21290;50.158;8.658;2022-09-09T14:31:11;1.50;;;0.57;;
35110;SDS011;21290;50.158;8.658;2022-09-09T14:33:40;3.70;;;0.90;;
35110;SDS011;21290;50.158;8.658;2022-09-09T14:36:06;4.10;;;0.80;;
35110;SDS011;21290;50.158;8.658;2022-09-09T14:38:34;3.92;;;0.70;;
35110;SDS011;21290;50.158;8.658;2022-09-09T14:41:05;2.88;;;0.88;;
35110;SDS011;21290;50.158;8.658;2022-09-09T14:43:33;4.35;;;0.88;;
35110;SDS011;21290;50.158;8.658;2022-09-09T14:46:06;1.50;;;0.60;;
35110;SDS011;21290;50.158;8.658;2022-09-09T14:48:34;3.75;;;0.68;;
35110;SDS011;21290;50.158;8.658;2022-09-09T14:51:08;2.55;;;0.80;;
35110;SDS011;21290;50.158;8.658;2022-09-09T14:53:39;1.95;;;0.75;;
35110;SDS011;21290;50.158;8.658;2022-09-09T14:56:07;4.97;;;1.30;;
35110;SDS011;21290;50.158;8.658;2022-09-09T14:58:36;2.80;;;0.70;;
35110;SDS011;21290;50.158;8.658;2022-09-09T15:01:11;2.17;;;0.82;;
35110;SDS011;21290;50.158;8.658;2022-09-09T15:03:41;2.25;;;0.80;;
35110;SDS011;21290;50.158;8.658;2022-09-09T15:06:10;2.90;;;0.77;;
35110;SDS011;21290;50.158;8.658;2022-09-09T15:08:40;1.23;;;0.70;;
35110;SDS011;21290;50.158;8.658;2022-09-09T15:11:11;1.80;;;0.73;;
35110;SDS011;21290;50.158;8.658;2022-09-09T15:13:40;4.47;;;0.90;;
35110;SDS011;21290;50.158;8.658;2022-09-09T15:16:10;3.72;;;0.88;;
35110;SDS011;21290;50.158;8.658;2022-09-09T15:18:41;3.38;;;0.80;;
35110;SDS011;21290;50.158;8.658;2022-09-09T15:21:13;4.50;;;0.80;;
35110;SDS011;21290;50.158;8.658;2022-09-09T15:23:41;4.18;;;1.42;;
35110;SDS011;21290;50.158;8.658;2022-09-09T15:26:08;3.10;;;0.63;;
35110;SDS011;21290;50.158;8.658;2022-09-09T15:28:36;2.15;;;0.60;;
35110;SDS011;21290;50.158;8.658;2022-09-09T15:31:09;1.02;;;0.60;;
35110;SDS011;21290;50.158;8.658;2022-09-09T15:33:37;4.78;;;0.80;;
35110;SDS011;21290;50.158;8.658;2022-09-09T15:36:21;4.47;;;0.80;;
35110;SDS011;21290;50.158;8.658;2022-09-09T15:38:50;3.20;;;0.70;;
35110;SDS011;21290;50.158;8.658;2022-09-09T15:41:17;3.03;;;0.70;;
35110;SDS011;21290;50.158;8.658;2022-09-09T15:43:46;1.83;;;0.68;;
35110;SDS011;21290;50.158;8.658;2022-09-09T15:48:50;3.72;;;0.70;;
35110;SDS011;21290;50.158;8.658;2022-09-09T15:51:19;1.88;;;0.73;;
35110;SDS011;21290;50.158;8.658;2022-09-09T15:54:06;3.00;;;0.80;;
35110;SDS011;21290;50.158;8.658;2022-09-09T15:56:33;2.95;;;0.90;;
35110;SDS011;21290;50.158;8.658;2022-09-09T15:59:01;2.40;;;0.60;;
35110;SDS011;21290;50.158;8.658;2022-09-09T16:01:29;3.20;;;0.90;;
35110;SDS011;21290;50.158;8.658;2022-09-09T16:03:57;1.52;;;0.55;;
35110;SDS011;21290;50.158;8.658;2022-09-09T16:06:26;2.83;;;0.52;;
35110;SDS011;21290;50.158;8.658;2022-09-09T16:08:55;2.72;;;0.90;;
35110;SDS011;21290;50.158;8.658;2022-09-09T16:11:25;4.13;;;1.00;;
35110;SDS011;21290;50.158;8.658;2022-09-09T16:13:54;3.35;;;0.82;;
35110;SDS011;21290;50.158;8.658;2022-09-09T16:16:22;2.35;;;0.73;;
35110;SDS011;21290;50.158;8.658;2022-09-09T16:18:50;3.75;;;0.90;;
35110;SDS011;21290;50.158;8.658;2022-09-09T16:21:21;2.15;;;0.95;;
35110;SDS011;21290;50.158;8.658;2022-09-09T16:23:56;3.30;;;0.90;;
35110;SDS011;21290;50.158;8.658;2022-09-09T16:26:25;2.42;;;0.98;;
35110;SDS011;21290;50.158;8.658;2022-09-09T16:28:53;6.07;;;1.08;;
35110;SDS011;21290;50.158;8.658;2022-09-09T16:31:24;3.67;;;0.85;;
35110;SDS011;21290;50.158;8.658;2022-09-09T16:33:52;2.83;;;1.02;;
35110;SDS011;21290;50.158;8.658;2022-09-09T16:36:21;4.57;;;1.00;;
35110;SDS011;21290;50.158;8.658;2022-09-09T16:38:53;3.65;;;0.98;;
35110;SDS011;21290;50.158;8.658;2022-09-09T16:41:21;4.72;;;1.13;;
35110;SDS011;21290;50.158;8.658;2022-09-09T16:43:51;2.40;;;1.00;;
35110;SDS011;21290;50.158;8.658;2022-09-09T16:46:29;5.13;;;1.38;;
35110;SDS011;21290;50.158;8.658;2022-09-09T16:48:58;5.93;;;0.90;;
35110;SDS011;21290;50.158;8.658;2022-09-09T16:51:26;4.82;;;1.20;;
35110;SDS011;21290;50.158;8.658;2022-09-09T16:53:58;4.25;;;0.88;;
35110;SDS011;21290;50.158;8.658;2022-09-09T16:56:27;4.35;;;1.33;;
35110;SDS011;21290;50.158;8.658;2022-09-09T16:58:55;6.63;;;1.20;;
35110;SDS011;21290;50.158;8.658;2022-09-09T17:01:24;2.20;;;0.68;;
35110;SDS011;21290;50.158;8.658;2022-09-09T17:03:55;4.57;;;0.98;;
35110;SDS011;21290;50.158;8.658;2022-09-09T17:06:27;4.53;;;1.00;;
35110;SDS011;21290;50.158;8.658;2022-09-09T17:08:55;2.53;;;0.70;;
35110;SDS011;21290;50.158;8.658;2022-09-09T17:11:23;2.22;;;0.70;;
35110;SDS011;21290;50.158;8.658;2022-09-09T17:13:50;4.28;;;0.85;;
35110;SDS011;21290;50.158;8.658;2022-09-09T17:16:19;4.68;;;1.00;;
35110;SDS011;21290;50.158;8.658;2022-09-09T17:18:48;1.88;;;0.73;;
35110;SDS011;21290;50.158;8.658;2022-09-09T17:21:16;3.40;;;1.13;;
35110;SDS011;21290;50.158;8.658;2022-09-09T17:23:45;3.08;;;1.27;;
35110;SDS011;21290;50.158;8.658;2022-09-09T17:26:14;3.75;;;0.82;;
35110;SDS011;21290;50.158;8.658;2022-09-09T17:28:43;3.50;;;0.80;;
35110;SDS011;21290;50.158;8.658;2022-09-09T17:31:12;6.53;;;1.40;;
35110;SDS011;21290;50.158;8.658;2022-09-09T17:33:42;1.58;;;0.90;;
35110;SDS011;21290;50.158;8.658;2022-09-09T17:36:11;3.42;;;1.00;;
35110;SDS011;21290;50.158;8.658;2022-09-09T17:38:40;2.53;;;0.85;;
35110;SDS011;21290;50.158;8.658;2022-09-09T17:41:09;4.55;;;1.10;;
35110;SDS011;21290;50.158;8.658;2022-09-09T17:43:42;3.15;;;1.00;;
35110;SDS011;21290;50.158;8.658;2022-09-09T17:46:11;6.47;;;1.25;;
35110;SDS011;21290;50.158;8.658;2022-09-09T17:48:40;4.82;;;0.90;;
35110;SDS011;21290;50.158;8.658;2022-09-09T17:51:09;3.85;;;1.20;;
35110;SDS011;21290;50.158;8.658;2022-09-09T17:53:43;1.80;;;0.80;;
35110;SDS011;21290;50.158;8.658;2022-09-09T17:56:12;3.25;;;1.15;;
35110;SDS011;21290;50.158;8.658;2022-09-09T17:58:40;5.47;;;0.90;;
35110;SDS011;21290;50.158;8.658;2022-09-09T18:01:08;2.53;;;0.98;;
35110;SDS011;21290;50.158;8.658;2022-09-09T18:03:38;3.80;;;1.10;;
35110;SDS011;21290;50.158;8.658;2022-09-09T18:06:06;3.67;;;1.13;;
35110;SDS011;21290;50.158;8.658;2022-09-09T18:08:35;2.17;;;0.90;;
35110;SDS011;21290;50.158;8.658;2022-09-09T18:11:02;2.83;;;1.00;;
35110;SDS011;21290;50.158;8.658;2022-09-09T18:13:29;3.92;;;1.10;;
35110;SDS011;21290;50.158;8.658;2022-09-09T18:15:56;3.75;;;1.02;;
35110;SDS011;21290;50.158;8.658;2022-09-09T18:18:24;3.13;;;0.98;;
35110;SDS011;21290;50.158;8.658;2022-09-09T18:21:00;2.70;;;0.90;;
35110;SDS011;21290;50.158;8.658;2022-09-09T18:23:29;2.13;;;0.90;;
35110;SDS011;21290;50.158;8.658;2022-09-09T18:25:56;2.92;;;1.25;;
35110;SDS011;21290;50.158;8.658;2022-09-09T18:28:25;3.88;;;0.90;;
35110;SDS011;21290;50.158;8.658;2022-09-09T18:30:52;3.73;;;1.23;;
35110;SDS011;21290;50.158;8.658;2022-09-09T18:33:19;2.60;;;0.90;;
35110;SDS011;21290;50.158;8.658;2022-09-09T18:35:45;3.00;;;1.02;;
35110;SDS011;21290;50.158;8.658;2022-09-09T18:38:13;4.30;;;0.85;;
35110;SDS011;21290;50.158;8.658;2022-09-09T18:40:42;3.03;;;1.10;;
35110;SDS011;21290;50.158;8.658;2022-09-09T18:43:09;1.75;;;0.70;;
35110;SDS011;21290;50.158;8.658;2022-09-09T18:45:37;6.82;;;0.82;;
35110;SDS011;21290;50.158;8.658;2022-09-09T18:48:04;4.00;;;1.13;;
35110;SDS011;21290;50.158;8.658;2022-09-09T18:50:32;4.25;;;1.45;;
35110;SDS011;21290;50.158;8.658;2022-09-09T18:52:59;5.82;;;1.55;;
35110;SDS011;21290;50.158;8.658;2022-09-09T18:55:25;4.10;;;1.13;;
35110;SDS011;21290;50.158;8.658;2022-09-09T18:57:53;2.92;;;1.20;;
35110;SDS011;21290;50.158;8.658;2022-09-09T19:00:23;3.40;;;1.10;;
35110;SDS011;21290;50.158;8.658;2022-09-09T19:02:50;4.65;;;1.30;;
35110;SDS011;21290;50.158;8.658;2022-09-09T19:05:18;8.38;;;1.38;;
35110;SDS011;21290;50.158;8.658;2022-09-09T19:07:44;3.75;;;1.17;;
35110;SDS011;21290;50.158;8.658;2022-09-09T19:10:11;1.25;;;0.80;;
35110;SDS011;21290;50.158;8.658;2022-09-09T19:12:37;3.28;;;0.93;;
35110;SDS011;21290;50.158;8.658;2022-09-09T19:15:06;3.50;;;0.83;;
35110;SDS011;21290;50.158;8.658;2022-09-09T19:17:33;1.08;;;0.60;;
35110;SDS011;21290;50.158;8.658;2022-09-09T19:20:00;2.85;;;0.90;;
35110;SDS011;21290;50.158;8.658;2022-09-09T19:22:27;1.60;;;0.60;;
35110;SDS011;21290;50.158;8.658;2022-09-09T19:24:54;3.42;;;0.80;;
35110;SDS011;21290;50.158;8.658;2022-09-09T19:27:21;1.95;;;0.60;;
35110;SDS011;21290;50.158;8.658;2022-09-09T19:29:48;2.85;;;0.73;;
35110;SDS011;21290;50.158;8.658;2022-09-09T19:32:20;2.13;;;0.98;;
35110;SDS011;21290;50.158;8.658;2022-09-09T19:35:07;1.73;;;0.70;;
35110;SDS011;21290;50.158;8.658;2022-09-09T19:37:34;3.30;;;1.02;;
35110;SDS011;21290;50.158;8.658;2022-09-09T19:40:01;5.07;;;1.23;;
35110;SDS011;21290;50.158;8.658;2022-09-09T19:42:30;2.95;;;0.80;;
35110;SDS011;21290;50.158;8.658;2022-09-09T19:44:57;4.05;;;0.90;;
35110;SDS011;21290;50.158;8.658;2022-09-09T19:47:23;2.70;;;0.77;;
35110;SDS011;21290;50.158;8.658;2022-09-09T19:49:50;1.20;;;0.82;;
35110;SDS011;21290;50.158;8.658;2022-09-09T19:52:17;3.28;;;0.88;;
35110;SDS011;21290;50.158;8.658;2022-09-09T19:54:44;1.95;;;0.95;;
35110;SDS011;21290;50.158;8.658;2022-09-09T19:57:11;6.63;;;1.13;;
35110;SDS011;21290;50.158;8.658;2022-09-09T19:59:38;2.78;;;1.10;;
35110;SDS011;21290;50.158;8.658;2022-09-09T20:02:05;2.33;;;1.00;;
35110;SDS011;21290;50.158;8.658;2022-09-09T20:04:31;3.00;;;0.90;;
35110;SDS011;21290;50.158;8.658;2022-09-09T20:07:00;2.15;;;0.90;;
35110;SDS011;21290;50.158;8.658;2022-09-09T20:09:27;2.65;;;0.93;;
35110;SDS011;21290;50.158;8.658;2022-09-09T20:11:55;2.53;;;1.00;;